Grouse Creek, UT (84313)

6:31 AM MDT on October 24, 2014 (GMT -0600)
RAWS ROSEBUD UT US | Change Station
CLOSE
Current Station
Personal Weather Station
Location: Grouse Creek, UT
Elevation: 4986 ft
Nearby Weather Stations
Active Advisory: Special Statement

Elev 4986 ft 41.61 °N, 113.59 °W | Updated 49 minutes ago

Partly Cloudy
Partly Cloudy
43 °F
Feels Like 39 °F
N
6
Wind Variable Wind from WNW
Gusts 7.0 mph

Today
High -- | Low -- °F
--% Chance of Precip.
Yesterday
High -- | Low -- °F
Precip. -- in
7:57 AM 6:40 PM
New Moon, 0% visible
Pressure 29.00 in
Visibility 10.0 miles
Clouds Clear
Windchill 39 °F
Dew Point 30 °F
Humidity 59%
Rainfall 0.00 in
Snow Depth Not available.
UV 0 out of 12
Pollen 2.70 out of 12
PM2.5 Good
Flu Activity Sporadic
METAR KU16 241158Z AUTO 06005KT 10SM CLR 09/01 A3012 RMK AO2 SLP819 T00890011 10122 20083 53004 $

More Conditions Fewer Conditions

Pressure 29.00 in
Visibility 10.0 miles
Clouds Clear
Windchill 39 °F
Dew Point 30 °F
Humidity 59%
Rainfall 0.00 in
Snow Depth Not available.
UV 0 out of 12
Pollen 2.70 out of 12
PM2.5 Good
Flu Activity Sporadic
METAR KU16 241158Z AUTO 06005KT 10SM CLR 09/01 A3012 RMK AO2 SLP819 T00890011 10122 20083 53004 $

More Conditions Fewer Conditions

10-Day Weather Forecast

Almanac

Astronomy

Oct. 24, 2014 Rise Set
Actual Time 7:57 AM MDT 6:40 PM MDT
Civil Twilight 7:29 AM MDT 7:08 PM MDT
Nautical Twilight 6:56 AM MDT 7:41 PM MDT
Astronomical Twilight 6:24 AM MDT 8:13 PM MDT
Moon 8:40 AM MDT 7:22 PM MDT
Length of Visible Light 11h 39m
Length of Day
10h 43m
Tomorrow will be 2m 34s shorter.
New Moon, 0% of the Moon is Illuminated
Today
New Moon
Oct 30
First Quarter
Nov 6
Full
Nov 14
Last Quarter
Nov 22
New

Today's Extremes

State Highs State Lows

Community

WunderPhotos

Upload Photos

1,764,544 photos uploaded!

Nearby

Air Quality

  Air Quality AQ Index Pollutant
Yesterday Good
PM2.5
Current Good
PM2.5

Snow Depth

Station Depth Elevation
Ben Lomond Peak 0 in 8000 ft
Little Bear 0 in 6550 ft
Dry Fork 0 in 7160 ft
Rocky Basin-Settlement 0 in 8900 ft
Farmington 1 in 8000 ft

Earthquake Activity

City Distance Mag. Time & Date
No recent earthquake activity has been reported nearby.
Minimum magnitude displayed is 2.5.

Coastal Water Temperatures

Place Temperature
No Stations Reporting

Nearby Weather Stations